Latest Weather Observations for Coldstream

IDV60801

Issued at 6:52 am EDT Friday 21 January 2022 (issued every 10 minutes, with the page automatically refreshed every 10 minutes)

About weather observations | Map of weather stations | Latest weather observations for VIC | Other Formats
Station Details ID: 086383 Name: COLDSTREAM Lat: -37.72 Lon: 145.41 Height: 83.0 m
Data from the previous 72 hours. | See also: Recent months at Coldstream
Date/Time
EDT
Temp
°C
App
Temp
°C
Dew
Point
°C
Rel
Hum
%
Delta-T
°C
Wind Press
QNH
hPa
Press
MSL
hPa
Rain since
9am
mm
Dir  Spd
km/h
Gust
km/h
Spd
kts
Gust
kts
21/06:30am 14.3 13.8 13.7 96 0.3 NE 9 13 5 7 1027.6 1027.3 0.0
21/06:00am 10.9 11.1 10.7 99 0.1 CALM 0 0 0 0 1027.4 1027.1 0.0
21/05:30am 11.1 11.4 10.9 99 0.1 CALM 0 7 0 4 1027.1 1026.8 0.0
21/05:00am 11.1 11.4 10.9 99 0.1 CALM 0 0 0 0 1026.8 1026.5 0.0
21/04:30am 11.7 12.2 11.5 99 0.1 CALM 0 0 0 0 1026.4 1026.2 0.0
21/04:00am 12.5 12.1 12.5 100 0.0 SSE 6 9 3 5 1026.3 1026.1 0.0
21/03:30am 12.1 12.7 11.9 99 0.1 CALM 0 0 0 0 1026.3 1026.1 0.0
21/03:00am 12.6 13.4 12.4 99 0.1 CALM 0 0 0 0 1026.3 1026.1 0.0
21/02:30am 12.9 13.7 12.6 98 0.2 CALM 0 0 0 0 1025.7 1025.5 0.0
21/02:00am 13.4 14.3 12.9 97 0.3 CALM 0 0 0 0 1025.6 1025.4 0.0
21/01:30am 14.0 14.8 12.7 92 0.7 CALM 0 6 0 3 1025.5 1025.3 0.0
21/01:00am 15.0 15.7 12.3 84 1.5 CALM 0 0 0 0 1025.6 1025.4 0.0
21/12:30am 16.5 17.3 12.7 78 2.1 CALM 0 0 0 0 1025.4 1025.2 0.0
21/12:00am 17.8 16.2 12.7 72 2.8 SE 13 17 7 9 1025.3 1025.1 0.0
 
Date/Time
EDT
Temp
°C
App
Temp
°C
Dew
Point
°C
Rel
Hum
%
Delta-T
°C
Wind Press
QNH
hPa
Press
MSL
hPa
Rain since
9am
mm
Dir  Spd
km/h
Gust
km/h
Spd
kts
Gust
kts
20/11:30pm 18.3 17.8 12.5 69 3.2 ESE 7 13 4 7 1025.1 1024.9 0.0
20/11:00pm 19.1 17.4 12.6 66 3.6 SE 13 22 7 12 1024.7 1024.5 0.0
20/10:30pm 19.8 18.1 12.6 63 4.1 SSE 13 24 7 13 1024.7 1024.5 0.0
20/10:00pm 20.6 18.6 12.6 60 4.5 SSE 15 26 8 14 1024.3 1024.1 0.0
20/09:30pm 21.7 19.3 12.5 56 5.2 SSE 17 32 9 17 1023.9 1023.7 0.0
20/09:00pm 22.8 20.4 12.7 53 5.8 SSE 17 28 9 15 1023.5 1023.3 0.0
20/08:30pm 24.0 21.6 12.6 49 6.6 SSE 17 24 9 13 1023.3 1023.1 0.0
20/08:00pm 25.7 23.2 12.2 43 7.8 SSE 17 28 9 15 1023.3 1023.1 0.0
20/07:30pm 27.2 24.8 11.3 37 9.1 S 15 24 8 13 1023.2 1023.0 0.0
20/07:00pm 28.6 26.6 11.6 34 9.8 SSE 13 22 7 12 1022.9 1022.7 0.0
20/06:30pm 29.2 27.1 11.3 33 10.3 SSE 13 22 7 12 1022.8 1022.6 0.0
20/06:00pm 29.2 27.1 11.3 33 10.3 SSE 13 22 7 12 1023.0 1022.8 0.0
20/05:30pm 29.4 26.6 11.5 33 10.4 S 17 24 9 13 1023.2 1023.0 0.0
20/05:00pm 30.1 27.9 12.1 33 10.5 SE 15 28 8 15 1023.6 1023.4 0.0
20/04:30pm 29.4 27.3 12.3 34 10.0 S 15 24 8 13 1023.9 1023.7 0.0
20/04:00pm 29.2 27.7 13.0 37 9.6 SSE 13 20 7 11 1024.2 1024.0 0.0
20/03:30pm 28.4 26.9 11.9 36 9.6 S 11 20 6 11 1024.7 1024.5 0.0
20/03:00pm 28.7 26.6 11.3 34 10.0 SE 13 24 7 13 1024.8 1024.6 0.0
20/02:30pm 27.7 26.4 11.3 36 9.4 SSW 9 19 5 10 1025.1 1024.9 0.0
20/02:00pm 27.8 26.2 10.1 33 9.9 SE 9 15 5 8 1025.4 1025.2 0.0
20/01:30pm 27.2 25.3 9.1 32 10.0 SSE 9 20 5 11 1025.9 1025.7 0.0
20/01:00pm 26.7 24.9 7.2 29 10.3 SSE 6 17 3 9 1026.4 1026.2 0.0
20/12:30pm 25.8 23.4 6.9 30 9.9 SSW 9 13 5 7 1026.8 1026.5 0.0
20/12:00pm 25.1 23.1 8.6 35 8.9 ESE 9 17 5 9 1027.3 1027.0 0.0
20/11:30am 23.4 22.0 8.7 39 7.9 SE 6 15 3 8 1027.6 1027.3 0.0
20/11:00am 21.8 20.9 9.3 45 6.7 WNW 4 7 2 4 1027.9 1027.6 0.0
20/10:30am 20.3 19.0 9.8 51 5.6 SSE 7 11 4 6 1027.9 1027.6 0.0
20/10:00am 19.1 18.1 9.0 52 5.3 E 4 13 2 7 1027.9 1027.6 0.0
20/09:30am 17.4 16.5 9.3 59 4.2 NNE 4 9 2 5 1028.0 1027.7 0.0
20/09:00am 16.5 15.6 10.6 68 3.1 N 6 9 3 5 1027.9 1027.6 0.0
20/08:30am 15.9 14.9 10.2 69 3.0 NE 6 11 3 6 1027.5 1027.2 0.0
20/08:00am 13.1 12.3 11.2 88 1.0 NNW 6 7 3 4 1027.5 1027.2 0.0
20/07:30am 11.0 10.9 10.8 99 0.1 NNW 2 6 1 3 1027.4 1027.1 0.0
20/07:00am 9.6 8.4 9.5 99 0.0 ESE 6 9 3 5 1027.4 1027.1 0.0
20/06:30am 8.1 7.6 8.0 99 0.0 CALM 0 0 0 0 1026.7 1026.4 0.0
20/06:00am 9.0 7.6 8.9 99 0.0 ESE 6 9 3 5 1026.3 1026.1 0.0
20/05:30am 9.7 9.0 8.5 92 0.6 E 2 7 1 4 1026.0 1025.8 0.0
20/05:00am 13.7 11.9 9.4 75 2.2 SSE 9 17 5 9 1025.6 1025.4 0.0
20/04:30am 12.6 10.7 9.1 79 1.8 SE 9 17 5 9 1025.1 1024.9 0.0
20/04:00am 13.9 12.3 8.9 72 2.5 E 7 13 4 7 1024.8 1024.6 0.0
20/03:30am 14.6 12.8 9.6 72 2.6 ENE 9 15 5 8 1025.0 1024.8 0.0
20/03:00am 14.5 12.4 9.7 73 2.5 ESE 11 17 6 9 1025.4 1025.2 0.0
20/02:30am 15.1 13.0 9.9 71 2.7 SE 11 20 6 11 1025.5 1025.3 0.0
20/02:00am 15.6 12.5 10.2 70 2.8 SSE 17 30 9 16 1025.7 1025.5 0.0
20/01:30am 15.7 12.3 10.5 71 2.8 SSE 19 32 10 17 1025.8 1025.6 0.0
20/01:00am 15.6 12.6 10.6 72 2.6 SSE 17 28 9 15 1025.8 1025.6 0.0
20/12:30am 15.9 12.9 10.7 71 2.8 SSE 17 26 9 14 1025.7 1025.5 0.0
20/12:00am 15.9 12.5 10.7 71 2.8 SSE 19 32 10 17 1025.5 1025.3 0.0
 
Date/Time
EDT
Temp
°C
App
Temp
°C
Dew
Point
°C
Rel
Hum
%
Delta-T
°C
Wind Press
QNH
hPa
Press
MSL
hPa
Rain since
9am
mm
Dir  Spd
km/h
Gust
km/h
Spd
kts
Gust
kts
19/11:30pm 16.3 13.6 10.4 68 3.1 SSE 15 24 8 13 1025.4 1025.2 0.0
19/11:00pm 16.8 14.0 10.0 64 3.6 SSE 15 22 8 12 1025.3 1025.1 0.0
19/10:30pm 17.4 14.2 10.1 62 3.9 SSE 17 24 9 13 1025.0 1024.8 0.0
19/10:00pm 17.7 14.6 10.3 62 3.9 SSE 17 32 9 17 1024.7 1024.5 0.0
19/09:30pm 18.5 14.8 10.3 59 4.4 SE 20 32 11 17 1024.3 1024.1 0.0
19/09:00pm 18.9 15.2 10.2 57 4.7 SE 20 30 11 16 1023.9 1023.7 0.0
19/08:30pm 20.1 14.8 9.7 51 5.6 SE 28 43 15 23 1023.5 1023.3 0.0
19/08:00pm 21.3 16.1 10.2 49 6.0 SE 28 37 15 20 1023.1 1022.9 0.0
19/07:42pm 21.9 16.7 10.1 47 6.4 SE 28 46 15 25 1022.9 1022.7 0.0
19/07:30pm 22.3 17.3 10.8 48 6.4 SE 28 43 15 23 1022.9 1022.7 0.0
19/07:00pm 22.7 18.1 11.1 48 6.4 SE 26 41 14 22 1022.3 1022.1 0.0
19/06:30pm 23.2 18.1 10.6 45 7.0 SE 28 52 15 28 1022.1 1021.9 0.0
19/06:21pm 23.3 17.5 10.7 45 7.0 SE 32 52 17 28 1022.0 1021.8 0.0
19/06:00pm 23.7 18.4 11.1 45 7.0 SE 30 43 16 23 1021.9 1021.7 0.0
19/05:30pm 24.4 18.9 11.7 45 7.2 SE 32 52 17 28 1021.6 1021.4 0.0
19/05:05pm 24.4 18.1 11.0 43 7.5 SE 35 57 19 31 1021.6 1021.4 0.0
19/05:00pm 24.7 19.1 11.6 44 7.4 SE 32 44 17 24 1021.6 1021.4 0.0
19/04:30pm 25.1 19.6 12.3 45 7.4 SE 33 52 18 28 1021.2 1021.0 0.0
19/04:00pm 24.9 19.6 12.5 46 7.1 SE 32 50 17 27 1021.2 1021.0 0.0
19/03:30pm 25.8 20.4 12.3 43 7.8 SE 32 50 17 27 1021.1 1020.9 0.0
19/03:02pm 25.9 20.8 12.0 42 8.0 SE 30 48 16 26 1021.1 1020.9 0.0
19/03:00pm 26.1 21.2 12.5 42 7.9 SE 30 46 16 25 1021.0 1020.8 0.0
19/02:33pm 26.7 22.5 13.4 43 7.9 SE 28 46 15 25 1021.1 1020.9 0.0
19/02:30pm 26.4 21.6 12.8 43 7.9 SE 30 46 16 25 1021.1 1020.9 0.0
19/02:00pm 26.9 22.7 13.6 44 7.9 SE 28 50 15 27 1021.0 1020.8 0.0
19/01:30pm 26.6 20.2 10.7 37 9.0 SE 35 54 19 29 1021.1 1020.9 0.0
19/01:01pm 26.6 20.9 11.9 40 8.5 SE 33 52 18 28 1021.0 1020.8 0.0
19/01:00pm 26.3 20.2 11.6 40 8.4 SE 35 52 19 28 1021.0 1020.8 0.0
19/12:50pm 26.8 22.3 12.5 41 8.3 SE 28 48 15 26 1020.9 1020.7 0.0
19/12:30pm 25.4 21.8 12.9 45 7.3 SE 24 41 13 22 1021.0 1020.8 0.0
19/12:03pm 24.5 20.1 12.8 48 6.8 SE 28 48 15 26 1021.2 1021.0 0.0
19/12:00pm 25.1 20.7 13.0 47 7.0 SE 28 43 15 23 1021.2 1021.0 0.0
19/11:46am 24.8 20.4 13.0 47 6.9 SE 28 50 15 27 1021.1 1020.9 0.0
19/11:30am 24.6 20.4 13.5 50 6.5 SE 28 44 15 24 1021.2 1021.0 0.0
19/11:00am 24.1 20.5 13.0 50 6.4 SSE 24 39 13 21 1021.1 1020.9 0.0
19/10:30am 24.3 21.4 12.9 49 6.6 SE 20 37 11 20 1021.0 1020.8 0.0
19/10:00am 22.6 22.5 13.4 56 5.3 NNE 6 15 3 8 1021.0 1020.8 0.0
19/09:30am 19.3 19.1 13.0 67 3.6 NW 6 9 3 5 1021.1 1020.9 0.0
19/09:00am 17.0 17.9 12.9 77 2.3 CALM 0 6 0 3 1021.0 1020.8 0.0
19/08:30am 15.1 15.0 12.2 83 1.6 N 4 7 2 4 1020.7 1020.5 0.0
19/08:00am 13.2 13.6 12.4 95 0.4 N 2 9 1 5 1020.2 1020.0 0.0
19/07:30am 11.4 11.8 11.4 100 0.0 CALM 0 0 0 0 1019.7 1019.5 0.0
19/07:00am 9.7 9.7 9.7 100 0.0 CALM 0 0 0 0 1019.1 1018.8 0.0
19/06:30am 8.5 8.1 8.4 99 0.0 CALM 0 0 0 0 1018.7 1018.4 0.0
19/06:00am 8.8 8.5 8.7 99 0.0 CALM 0 0 0 0 1018.5 1018.2 0.0
19/05:30am 9.5 8.6 9.4 99 0.0 N 4 9 2 5 1018.3 1018.0 0.0
19/05:00am 10.4 10.1 10.2 99 0.1 E 2 7 1 4 1017.7 1017.4 0.0
19/04:30am 12.0 10.9 10.7 92 0.7 ENE 7 11 4 6 1017.4 1017.1 0.0
19/04:00am 12.8 11.5 11.4 91 0.7 E 9 19 5 10 1017.3 1017.0 0.0
19/03:30am 13.7 12.4 11.2 85 1.3 E 9 15 5 8 1017.2 1016.9 0.0
19/03:00am 14.0 13.1 11.2 83 1.5 SE 7 15 4 8 1017.2 1016.9 0.0
19/02:30am 14.5 12.4 11.3 81 1.7 SSE 13 22 7 12 1017.3 1017.0 0.0
19/02:00am 14.5 12.7 10.9 79 1.9 SSE 11 19 6 10 1017.5 1017.2 0.0
19/01:30am 14.7 12.9 10.9 78 2.0 S 11 19 6 10 1017.9 1017.6 0.0
19/01:00am 14.6 13.0 11.4 81 1.7 S 11 15 6 8 1018.2 1017.9 0.0
19/12:30am 14.5 12.8 11.3 81 1.7 SSE 11 19 6 10 1018.3 1018.0 0.0
19/12:00am 14.5 13.4 10.7 78 2.0 WSW 7 11 4 6 1018.5 1018.2 0.0
 
Date/Time
EDT
Temp
°C
App
Temp
°C
Dew
Point
°C
Rel
Hum
%
Delta-T
°C
Wind Press
QNH
hPa
Press
MSL
hPa
Rain since
9am
mm
Dir  Spd
km/h
Gust
km/h
Spd
kts
Gust
kts
18/11:30pm 15.0 13.1 10.6 75 2.3 S 11 17 6 9 1018.6 1018.3 0.0
18/11:00pm 15.0 13.5 10.4 74 2.4 SSE 9 17 5 9 1018.5 1018.2 0.0
18/10:30pm 15.5 13.2 10.3 71 2.7 SSE 13 22 7 12 1018.5 1018.2 0.0
18/10:00pm 15.8 13.3 9.7 67 3.2 S 13 20 7 11 1018.3 1018.0 0.0
18/09:30pm 16.2 13.2 9.2 63 3.6 S 15 24 8 13 1018.3 1018.0 0.0
18/09:00pm 16.6 13.9 9.1 61 3.9 S 13 22 7 12 1017.9 1017.6 0.0
18/08:30pm 17.2 14.7 9.6 61 4.0 S 13 22 7 12 1017.4 1017.1 0.0
18/08:00pm 18.2 15.3 9.5 57 4.6 S 15 26 8 14 1017.0 1016.7 0.0
18/07:30pm 18.8 15.1 9.6 55 4.9 SSE 19 35 10 19 1016.2 1015.9 0.0
18/07:00pm 19.6 16.0 10.0 54 5.2 S 19 32 10 17 1016.2 1015.9 0.0
18/06:30pm 19.9 16.4 10.3 54 5.2 S 19 32 10 17 1015.8 1015.5 0.0
18/06:00pm 20.6 17.2 10.4 52 5.5 S 19 32 10 17 1015.7 1015.4 0.0
18/05:30pm 20.7 17.0 10.2 51 5.7 S 20 32 11 17 1015.6 1015.3 0.0
18/05:00pm 21.3 18.1 11.1 52 5.6 S 19 30 10 16 1015.8 1015.5 0.0
18/04:30pm 22.0 18.7 9.5 45 6.7 S 17 28 9 15 1015.6 1015.3 0.0
18/04:00pm 22.4 19.4 10.5 47 6.5 S 17 32 9 17 1015.8 1015.5 0.0
18/03:30pm 22.2 18.6 10.0 46 6.7 S 19 32 10 17 1015.8 1015.5 0.0
18/03:00pm 22.5 19.2 9.6 44 7.0 S 17 26 9 14 1015.9 1015.6 0.0
18/02:30pm 22.6 19.2 9.0 42 7.3 S 17 30 9 16 1015.8 1015.5 0.0
18/02:00pm 22.6 19.6 12.0 51 6.0 S 19 33 10 18 1016.0 1015.7 0.0
18/01:30pm 22.5 19.9 10.6 47 6.6 SSE 15 26 8 14 1016.2 1015.9 0.0
18/01:00pm 21.6 18.6 9.2 45 6.6 SE 15 24 8 13 1016.3 1016.0 0.0
18/12:30pm 21.4 18.7 9.0 45 6.6 SE 13 26 7 14 1016.5 1016.2 0.0
18/12:00pm 21.2 18.9 10.4 50 5.9 SSE 13 24 7 13 1016.5 1016.2 0.0
18/11:30am 20.1 17.8 10.5 54 5.2 SSE 13 22 7 12 1016.8 1016.5 0.0
18/11:00am 19.7 17.4 10.4 55 5.0 SSE 13 22 7 12 1017.1 1016.8 0.0
18/10:30am 19.9 18.2 11.1 57 4.8 SSE 11 17 6 9 1016.9 1016.6 0.0
18/10:00am 18.3 16.9 10.9 62 4.0 SSE 9 17 5 9 1016.7 1016.4 0.0
18/09:30am 18.0 16.0 10.1 60 4.2 SSE 11 20 6 11 1016.7 1016.4 0.0
18/09:00am 18.2 15.9 10.6 61 4.1 SE 13 22 7 12 1016.5 1016.2 0.0
18/08:30am 17.6 16.2 10.9 65 3.6 SE 9 15 5 8 1016.3 1016.0 0.0
18/08:00am 16.6 14.8 10.9 69 3.1 SSE 11 17 6 9 1016.2 1015.9 0.0
18/07:30am 16.2 15.1 10.7 70 2.9 SSE 7 15 4 8 1015.9 1015.6 0.0
18/07:00am 15.8 14.7 10.8 72 2.7 SE 7 11 4 6 1015.8 1015.5 0.0

Other formats

Comma delimited format used in spreadsheet applications
http://www.bom.gov.au/fwo/IDV60801/IDV60801.94864.axf

JavaScript Object Notation format (JSON) in row-major order
http://www.bom.gov.au/fwo/IDV60801/IDV60801.94864.json

Data quality

Most of these data are generated automatically and are frequently updated. Quality checks on data are not normally performed. It is possible for incorrect values to appear. Refer to information at About Latest Weather Observations and please check the disclaimer before using these data.